• Join FlightAware (Why Join?)
  • Login
  • US Flag 
01:18AM EDT


 

Airport Tracker/Info


-or-


 

Live Flight TrackerFlight Track Log ✈ SWA1103 ✈ 05-May-2013 ✈ KBWI - KMDW

Flight Track Log - Related Links

Times and Time Zones

All times are in EDT time to prevent confusion due to time zone crossing. See the SWA1103 flight status page for this flight to view local times or setup timezone preferences in your user account.

Time Position Orientation Groundspeed Altitude Reporting Facility
EDT Latitude Longitude Course Direction KTS MPH feet Rate Location/Type
05:46PM 39.1333 -76.7000 211° Southwest 224 258 2,200  Level Potomac TRACON
05:47PM 39.1833 -76.7500 322° Northwest 244 281 4,600 2,340 Climbing Potomac TRACON
05:48PM 39.2000 -76.8500 282° West 283 326 6,900 2,880 Climbing Potomac TRACON
05:49PM 39.2167 -76.9500 282° West 298 343 10,400 2,640 Climbing Potomac TRACON
05:50PM 39.2167 -77.0833 270° West 351 404 12,300 2,340 Climbing Potomac TRACON
05:51PM 39.0692 -77.2555 211° Southwest  Level FlightAware Approximate
05:51PM 39.1667 -77.1833 237° Southwest 377 434 15,200  Level Potomac TRACON
05:53PM 39.0689 -77.3803 237° Southwest 408 470 19,300 2,160 Climbing Washington Center
05:54PM 39.0522 -77.5267 262° West 425 489 21,600 2,040 Climbing Washington Center
05:55PM 39.0308 -77.6786 260° West 431 496 23,500 1,980 Climbing Washington Center
05:56PM 39.0133 -77.8356 262° West 443 510 25,500 1,140 Climbing Washington Center
05:58PM 38.9719 -78.1333 260° West 449 517 27,000 480 Climbing Washington Center
05:59PM 38.9622 -78.2933 266° West 449 517 27,000 360 Level Washington Center
06:01PM 38.9736 -78.6114 273° West 439 505 28,100 840 Climbing Washington Center
06:02PM 38.9778 -78.7719 272° West 449 517 29,600 1,680 Climbing Washington Center
06:03PM 38.9817 -78.9297 272° West 449 517 31,600 1,800 Climbing Washington Center
06:04PM 38.9878 -79.0847 273° West 449 517 33,200 1,320 Climbing Washington Center
06:05PM 38.9914 -79.2453 272° West 443 510 34,300 840 Climbing Washington Center
06:06PM 38.9947 -79.4031 272° West 443 510 35,000 840 Climbing Washington Center
06:07PM 38.9981 -79.5556 272° West 443 510 36,000 480 Climbing Washington Center
06:08PM 39.0014 -79.7106 272° West 443 510 36,000  Level Washington Center
06:10PM 39.0028 -80.0050 270° West 428 493 36,000  Level Indianapolis Center
06:11PM 39.0056 -80.1625 271° West 428 493 36,000  Level Indianapolis Center
06:12PM 39.0078 -80.3181 271° West 434 499 36,000  Level Indianapolis Center
06:13PM 39.0106 -80.4719 271° West 433 498 36,000  Level Indianapolis Center
06:14PM 39.0119 -80.6581 271° West 435 501 36,000  Level Indianapolis Center
06:16PM 39.0908 -80.9500 289° West 455 524 36,000  Level Indianapolis Center
06:17PM 39.1542 -81.0881 301° West 451 519 36,000  Level Indianapolis Center
06:18PM 39.2197 -81.2272 301° West 455 524 36,000  Level Indianapolis Center
06:19PM 39.2997 -81.3947 302° West 458 527 36,000  Level Indianapolis Center
06:20PM 39.3647 -81.5361 301° West 460 529 36,000  Level Indianapolis Center
06:21PM 39.4314 -81.6769 302° West 460 529 36,000  Level Indianapolis Center
06:22PM 39.4972 -81.8178 301° West 460 529 36,000  Level Indianapolis Center
06:23PM 39.5636 -81.9608 301° West 463 533 36,000  Level Indianapolis Center
06:24PM 39.6294 -82.1061 301° West 467 537 36,000  Level Indianapolis Center
06:25PM 39.7089 -82.2792 301° West 469 540 36,000  Level Indianapolis Center
06:26PM 39.7764 -82.4256 301° West 469 540 36,000  Level Indianapolis Center
06:27PM 39.8428 -82.5742 300° West 473 544 36,000  Level Indianapolis Center
06:28PM 39.9103 -82.7211 301° West 471 542 36,000  Level Indianapolis Center
06:29PM 39.9769 -82.8706 300° West 474 545 36,000  Level Indianapolis Center
06:30PM 40.0431 -83.0189 300° West 473 544 36,000  Level Indianapolis Center
06:31PM 40.1206 -83.1919 300° West 474 545 36,000  Level Indianapolis Center
06:32PM 40.1872 -83.3411 300° West 475 547 36,000  Level Indianapolis Center
06:33PM 40.2528 -83.4908 300° West 474 545 36,000  Level Indianapolis Center
06:35PM 40.3189 -83.6403 300° West 474 545 36,000  Level Indianapolis Center
06:36PM 40.3839 -83.7908 300° West 474 545 36,000 -180 Level Indianapolis Center
06:37PM 40.4497 -83.9417 300° West 473 544 35,700 -780 Descending Indianapolis Center
06:38PM 40.5267 -84.1186 300° West 475 547 34,500 -1,080 Descending Indianapolis Center
06:39PM 40.5908 -84.2686 299° West 470 541 33,500 -1,020 Descending Indianapolis Center
06:40PM 40.6539 -84.4158 299° West 461 531 32,400 -1,140 Descending Indianapolis Center
06:40PM 40.6750 -84.4622 301° West 460 529 32,100 -1,020 Descending Chicago Center
06:41PM 40.7350 -84.6069 299° West 453 521 31,100 -1,020 Descending Chicago Center
06:42PM 40.7956 -84.7481 300° West 446 513 30,100 -660 Descending Chicago Center
06:43PM 40.8542 -84.8881 299° West 439 505 29,800 -660 Descending Chicago Center
06:44PM 40.9308 -85.0144 309° West 450 518 28,800 -1,020 Descending Chicago Center
06:45PM 41.0294 -85.1125 323° Northwest 445 512 27,800 -900 Descending Chicago Center
06:46PM 41.1264 -85.2081 323° Northwest 437 503 27,000 -420 Descending Chicago Center
06:47PM 41.2417 -85.3217 323° Northwest 432 497 27,000  Level Chicago Center
06:48PM 41.3317 -85.4233 320° Northwest 430 495 27,000 -1,140 Level Chicago Center
06:49PM 41.3847 -85.5781 295° West 457 526 24,700 -2,580 Descending Chicago Center
06:50PM 41.4336 -85.7361 292° West 457 526 21,700 -2,820 Descending Chicago Center
06:51PM 41.4639 -85.8967 284° West 442 509 18,900 -2,580 Descending Chicago Center
06:52PM 41.4814 -86.0517 279° West 426 490 16,400 -2,520 Descending Chicago Center
06:53PM 41.5000 -86.2075 279° West 425 489 13,700 -2,520 Descending Chicago Center
06:54PM 41.5203 -86.3792 279° West 393 452 11,200 -1,800 Descending Chicago Center
06:55PM 41.5206 -86.5058 270° West 343 395 10,100 -600 Descending Chicago Center
06:56PM 41.5206 -86.6292 270° West 332 382 10,000 -660 Descending Chicago Center
06:58PM 41.5167 -86.7860 270° West  Level FlightAware Approximate
06:59PM 41.5189 -86.8692 270° West 301 346 8,200  Level Chicago Center
07:00PM 41.5181 -86.9806 269° West 301 346 6,600 -1,140 Descending Chicago Center
07:01PM 41.5181 -87.0886 270° West 296 341 5,900 -240 Descending Chicago Center
07:02PM 41.5286 -87.1947 278° West 291 335 6,100 -360 Climbing Chicago Center
07:03PM 41.5333 -87.3000 273° West 283 326 5,300 -1,020 Descending Chicago TRACON
07:04PM 41.5533 -87.4219 282° West 282 325 4,100 -600 Descending Chicago Center
07:05PM 41.5639 -87.5244 278° West 281 323 4,100  Level Chicago Center
07:06PM 41.5747 -87.6267 278° West 281 323 4,100 -60 Level Chicago Center
07:07PM 41.5867 -87.7242 279° West 277 319 4,000 -540 Descending Chicago Center
07:08PM 41.6236 -87.8167 298° West 252 290 3,000 -780 Descending Chicago Center
07:09PM 41.6500 -87.8667 305° West 209 241 2,600 -540 Descending Chicago TRACON
07:09PM 41.6572 -87.8808 304° West 231 266 2,500  Descending Chicago Center
07:10PM 41.6956 -87.8667 15° North 192 221 2,600 -120 Climbing Chicago Center
07:11PM 41.7167 -87.8333 50° Northeast 156 180 2,300 -600 Descending Chicago TRACON
07:12PM 41.7500 -87.8000 37° Northeast 127 146 1,600 -720 Descending Chicago TRACON
07:13PM 41.7667 -87.7667 56° Northeast 132 152 900 -720 Descending Chicago TRACON
07:15PM 41.7833 -87.7500 33° Northeast  Level FlightAware Approximate